createdAt,value
2019-01-12T00:00:32.388Z,99.475098
2019-01-12T00:01:41.901Z,99.475098
2019-01-12T00:02:51.426Z,99.475098
2019-01-12T00:04:00.926Z,99.475098
2019-01-12T00:05:10.451Z,99.475098
2019-01-12T00:06:19.968Z,99.475098
2019-01-12T00:07:29.514Z,99.475098
2019-01-12T00:08:39.062Z,99.475098
2019-01-12T00:09:48.590Z,99.475098
2019-01-12T00:10:58.115Z,99.475098
2019-01-12T00:12:07.754Z,99.475098
2019-01-12T00:13:17.321Z,99.578857
2019-01-12T00:14:26.860Z,99.578857
2019-01-12T00:15:36.407Z,99.578857
2019-01-12T00:16:45.954Z,99.578857
2019-01-12T00:17:55.486Z,99.578857
2019-01-12T00:19:05.049Z,99.578857
2019-01-12T00:20:14.535Z,99.536133
2019-01-12T00:21:24.071Z,99.578857
2019-01-12T00:22:33.639Z,99.536133
2019-01-12T00:23:43.157Z,99.536133
2019-01-12T00:24:52.693Z,99.536133
2019-01-12T00:26:02.214Z,99.536133
2019-01-12T00:27:11.756Z,99.536133
2019-01-12T00:28:21.280Z,99.536133
2019-01-12T00:29:31.817Z,99.536133
2019-01-12T00:30:42.331Z,99.536133
2019-01-12T00:31:51.878Z,99.536133
2019-01-12T00:33:01.411Z,99.536133
2019-01-12T00:34:10.940Z,99.536133
2019-01-12T00:35:20.445Z,99.536133
2019-01-12T00:36:29.952Z,99.536133
2019-01-12T00:37:39.476Z,99.536133
2019-01-12T00:38:49.007Z,99.639893
2019-01-12T00:39:58.514Z,99.639893
2019-01-12T00:41:08.035Z,99.536133
2019-01-12T00:42:18.555Z,99.536133
2019-01-12T00:43:28.109Z,99.536133
2019-01-12T00:44:37.657Z,99.536133
2019-01-12T00:45:46.169Z,99.639893
2019-01-12T00:46:55.688Z,99.639893
2019-01-12T00:48:05.226Z,99.536133
2019-01-12T00:49:14.732Z,99.536133
2019-01-12T00:50:24.256Z,99.639893
2019-01-12T00:51:33.787Z,99.639893
2019-01-12T00:52:43.292Z,99.639893
2019-01-12T00:53:52.920Z,99.536133
2019-01-12T00:55:02.436Z,99.639893
2019-01-12T00:56:11.950Z,99.639893
2019-01-12T00:57:22.484Z,99.639893
2019-01-12T00:58:32.027Z,99.639893
2019-01-12T00:59:41.547Z,99.639893
2019-01-12T01:00:51.075Z,99.639893
2019-01-12T01:02:00.603Z,99.639893
2019-01-12T01:03:10.141Z,99.639893
2019-01-12T01:04:19.670Z,99.639893
2019-01-12T01:05:30.202Z,99.639893
2019-01-12T01:06:39.756Z,99.597168
2019-01-12T01:07:49.295Z,99.597168
2019-01-12T01:08:58.830Z,99.597168
2019-01-12T01:10:08.355Z,99.597168
2019-01-12T01:11:17.897Z,99.597168
2019-01-12T01:12:27.455Z,99.597168
2019-01-12T01:13:37.004Z,99.597168
2019-01-12T01:14:46.530Z,99.597168
2019-01-12T01:15:56.066Z,99.700928
2019-01-12T01:17:05.590Z,99.597168
2019-01-12T01:18:15.145Z,99.597168
2019-01-12T01:19:24.658Z,99.700928
2019-01-12T01:20:34.168Z,99.700928
2019-01-12T01:21:43.730Z,99.700928
2019-01-12T01:22:53.257Z,99.700928
2019-01-12T01:24:02.799Z,99.700928
2019-01-12T01:25:12.343Z,99.700928
2019-01-12T01:26:21.866Z,99.700928
2019-01-12T01:27:31.395Z,99.700928
2019-01-12T01:28:40.949Z,99.700928
2019-01-12T01:29:50.493Z,99.700928
2019-01-12T01:31:00.030Z,99.700928
2019-01-12T01:32:09.571Z,99.700928
2019-01-12T01:33:19.089Z,99.700928
2019-01-12T01:34:29.589Z,99.700928
2019-01-12T01:35:39.107Z,99.700928
2019-01-12T01:36:48.618Z,99.700928
2019-01-12T01:37:58.191Z,99.700928
2019-01-12T01:39:07.741Z,99.700928
2019-01-12T01:40:17.281Z,99.700928
2019-01-12T01:41:26.787Z,99.700928
2019-01-12T01:42:36.331Z,99.700928
2019-01-12T01:43:45.882Z,99.658203
2019-01-12T01:44:55.404Z,99.804688
2019-01-12T01:46:04.915Z,99.700928
2019-01-12T01:47:14.441Z,99.658203
2019-01-12T01:48:23.991Z,99.658203
2019-01-12T01:49:33.504Z,99.658203
2019-01-12T01:50:43.007Z,99.804688
2019-01-12T01:51:52.543Z,99.804688
2019-01-12T01:53:02.071Z,99.804688
2019-01-12T01:54:11.733Z,99.658203
2019-01-12T01:55:22.265Z,99.761963
2019-01-12T01:56:31.783Z,99.761963
2019-01-12T01:57:41.293Z,99.761963
2019-01-12T01:58:50.870Z,99.761963
2019-01-12T02:00:00.405Z,99.761963
2019-01-12T02:01:08.913Z,99.761963
2019-01-12T02:02:18.435Z,99.761963
2019-01-12T02:03:28.015Z,99.761963
2019-01-12T02:04:37.538Z,99.761963
2019-01-12T02:05:47.070Z,99.761963
2019-01-12T02:06:56.615Z,99.761963
2019-01-12T02:08:06.145Z,99.761963
2019-01-12T02:09:15.690Z,99.761963
2019-01-12T02:10:25.209Z,99.761963
2019-01-12T02:11:34.733Z,99.761963
2019-01-12T02:12:44.267Z,99.761963
2019-01-12T02:13:53.810Z,99.761963
2019-01-12T02:15:03.338Z,99.761963
2019-01-12T02:16:12.887Z,99.761963
2019-01-12T02:17:22.419Z,99.761963
2019-01-12T02:18:31.927Z,99.713135
2019-01-12T02:19:41.469Z,99.713135
2019-01-12T02:20:51.004Z,99.713135
2019-01-12T02:22:00.519Z,99.713135
2019-01-12T02:23:10.050Z,99.713135
2019-01-12T02:24:19.583Z,99.713135
2019-01-12T02:25:29.087Z,99.713135
2019-01-12T02:26:38.632Z,99.713135
2019-01-12T02:27:48.156Z,99.713135
2019-01-12T02:28:57.680Z,99.822998
2019-01-12T02:30:07.269Z,99.713135
2019-01-12T02:31:17.799Z,99.713135
2019-01-12T02:32:27.342Z,99.822998
2019-01-12T02:33:36.896Z,99.822998
2019-01-12T02:34:46.486Z,99.822998
2019-01-12T02:35:56.005Z,99.713135
2019-01-12T02:37:05.519Z,99.822998
2019-01-12T02:38:15.072Z,99.822998
2019-01-12T02:39:24.649Z,99.822998
2019-01-12T02:40:34.179Z,99.822998
2019-01-12T02:41:43.708Z,99.822998
2019-01-12T02:42:53.290Z,99.822998
2019-01-12T02:44:02.922Z,99.822998
2019-01-12T02:45:12.541Z,99.822998
2019-01-12T02:46:22.165Z,99.822998
2019-01-12T02:47:31.751Z,99.822998
2019-01-12T02:48:41.339Z,99.822998
2019-01-12T02:49:50.938Z,99.822998
2019-01-12T02:51:00.607Z,99.822998
2019-01-12T02:52:10.271Z,99.822998
2019-01-12T02:53:19.941Z,99.822998
2019-01-12T02:54:29.578Z,99.822998
2019-01-12T02:55:39.195Z,99.822998
2019-01-12T02:56:48.847Z,99.822998
2019-01-12T02:57:58.439Z,99.822998
2019-01-12T02:59:07.950Z,99.822998
2019-01-12T03:00:17.504Z,99.822998
2019-01-12T03:01:27.028Z,99.822998
2019-01-12T03:02:36.559Z,99.822998
2019-01-12T03:03:46.080Z,99.822998
2019-01-12T03:04:55.611Z,99.822998
2019-01-12T03:06:05.151Z,99.822998
2019-01-12T03:07:14.660Z,99.822998
2019-01-12T03:08:24.198Z,99.926758
2019-01-12T03:09:33.746Z,99.926758
2019-01-12T03:10:43.276Z,99.926758
2019-01-12T03:11:52.777Z,99.926758
2019-01-12T03:13:02.351Z,99.926758
2019-01-12T03:14:11.867Z,99.926758
2019-01-12T03:15:21.413Z,99.926758
2019-01-12T03:16:30.929Z,99.926758
2019-01-12T03:17:40.433Z,99.926758
2019-01-12T03:18:49.973Z,99.926758
2019-01-12T03:19:59.507Z,99.926758
2019-01-12T03:21:09.014Z,99.926758
2019-01-12T03:22:18.541Z,99.926758
2019-01-12T03:23:28.047Z,99.87793
2019-01-12T03:24:37.658Z,99.822998
2019-01-12T03:25:47.200Z,99.926758
2019-01-12T03:26:56.734Z,99.926758
2019-01-12T03:28:06.252Z,99.87793
2019-01-12T03:29:15.793Z,99.926758
2019-01-12T03:30:25.357Z,99.926758
2019-01-12T03:31:34.884Z,99.87793
2019-01-12T03:32:44.413Z,99.87793
2019-01-12T03:33:53.946Z,99.87793
2019-01-12T03:35:03.487Z,99.981689
2019-01-12T03:36:12.988Z,99.87793
2019-01-12T03:37:22.507Z,99.87793
2019-01-12T03:38:32.033Z,99.87793
2019-01-12T03:39:41.554Z,99.981689
2019-01-12T03:40:51.089Z,99.87793
2019-01-12T03:42:00.622Z,99.981689
2019-01-12T03:43:10.156Z,99.87793
2019-01-12T03:44:19.652Z,99.981689
2019-01-12T03:45:29.191Z,99.981689
2019-01-12T03:46:38.718Z,99.981689
2019-01-12T03:47:48.256Z,99.981689
2019-01-12T03:48:57.779Z,99.981689
2019-01-12T03:50:07.304Z,99.981689
2019-01-12T03:51:16.843Z,99.981689
2019-01-12T03:52:26.367Z,99.981689
2019-01-12T03:53:35.885Z,99.981689
2019-01-12T03:54:45.416Z,99.981689
2019-01-12T03:55:54.958Z,99.981689
2019-01-12T03:57:04.468Z,99.981689
2019-01-12T03:58:14.984Z,99.981689
2019-01-12T03:59:24.588Z,99.981689
2019-01-12T04:00:34.088Z,99.981689
2019-01-12T04:01:43.596Z,99.981689
2019-01-12T04:02:53.129Z,99.981689
2019-01-12T04:04:02.640Z,99.938965
2019-01-12T04:05:12.218Z,99.938965
2019-01-12T04:06:21.741Z,99.938965
2019-01-12T04:07:31.282Z,99.938965
2019-01-12T04:08:40.826Z,99.938965
2019-01-12T04:09:50.384Z,99.938965
2019-01-12T04:10:59.920Z,99.993896
2019-01-12T04:12:09.445Z,99.938965
2019-01-12T04:13:18.996Z,99.938965
2019-01-12T04:14:28.523Z,99.938965
2019-01-12T04:15:38.070Z,99.993896
2019-01-12T04:16:47.584Z,99.993896
2019-01-12T04:17:57.142Z,99.993896
2019-01-12T04:19:06.658Z,99.993896
2019-01-12T04:20:16.247Z,99.993896
2019-01-12T04:21:25.771Z,99.993896
2019-01-12T04:22:34.309Z,99.993896
2019-01-12T04:23:43.845Z,99.993896
2019-01-12T04:24:53.377Z,99.993896
2019-01-12T04:26:02.940Z,99.993896
2019-01-12T04:27:13.471Z,99.993896
2019-01-12T04:28:23.001Z,99.993896
2019-01-12T04:29:32.520Z,99.993896
2019-01-12T04:30:42.038Z,99.993896
2019-01-12T04:31:51.567Z,99.993896
2019-01-12T04:33:01.090Z,99.993896
2019-01-12T04:34:10.612Z,99.993896
2019-01-12T04:35:20.145Z,99.993896
2019-01-12T04:36:29.667Z,99.993896
2019-01-12T04:37:39.221Z,99.993896
2019-01-12T04:38:48.733Z,99.993896
2019-01-12T04:39:58.247Z,99.993896
2019-01-12T04:41:07.779Z,99.993896
2019-01-12T04:42:17.288Z,99.993896
2019-01-12T04:43:26.832Z,99.993896
2019-01-12T04:44:36.709Z,99.993896
2019-01-12T04:45:46.504Z,99.993896
2019-01-12T04:46:56.159Z,99.993896
2019-01-12T04:48:05.683Z,99.993896
2019-01-12T04:49:15.230Z,99.993896
2019-01-12T04:50:24.739Z,99.993896
2019-01-12T04:51:34.280Z,99.993896
2019-01-12T04:52:43.820Z,99.993896
2019-01-12T04:53:53.337Z,99.993896
2019-01-12T04:55:02.861Z,99.993896
2019-01-12T04:56:12.411Z,99.993896
2019-01-12T04:57:21.937Z,99.993896
2019-01-12T04:58:31.472Z,99.993896
2019-01-12T04:59:41.002Z,99.993896
2019-01-12T05:00:50.531Z,99.993896
2019-01-12T05:02:00.054Z,99.993896
2019-01-12T05:03:09.577Z,99.993896
2019-01-12T05:04:19.114Z,99.993896
2019-01-12T05:05:28.651Z,99.993896
2019-01-12T05:06:38.198Z,99.993896
2019-01-12T05:07:47.741Z,99.993896
2019-01-12T05:08:57.252Z,99.993896
2019-01-12T05:10:06.798Z,99.993896
2019-01-12T05:11:16.330Z,99.993896
2019-01-12T05:12:25.856Z,99.993896
2019-01-12T05:13:35.397Z,99.993896
2019-01-12T05:14:44.933Z,99.993896
2019-01-12T05:15:54.487Z,99.993896
2019-01-12T05:17:04.016Z,99.993896
2019-01-12T05:18:13.550Z,99.993896
2019-01-12T05:19:23.095Z,99.993896
2019-01-12T05:20:33.630Z,99.993896
2019-01-12T05:21:42.156Z,99.993896
2019-01-12T05:22:51.705Z,99.993896
2019-01-12T05:24:01.225Z,99.993896
2019-01-12T05:25:10.757Z,99.993896
2019-01-12T05:26:20.308Z,99.993896
2019-01-12T05:27:29.867Z,99.993896
2019-01-12T05:28:39.408Z,99.993896
2019-01-12T05:29:48.954Z,99.993896
2019-01-12T05:30:58.500Z,99.993896
2019-01-12T05:32:08.009Z,99.993896
2019-01-12T05:33:17.534Z,99.993896
2019-01-12T05:34:27.092Z,99.993896
2019-01-12T05:35:36.629Z,99.993896
2019-01-12T05:36:46.169Z,99.993896
2019-01-12T05:37:55.678Z,99.993896
2019-01-12T05:39:05.236Z,99.993896
2019-01-12T05:40:14.778Z,99.993896
2019-01-12T05:41:24.335Z,99.993896
2019-01-12T05:42:33.853Z,99.993896
2019-01-12T05:43:43.361Z,99.993896
2019-01-12T05:44:52.884Z,99.993896
2019-01-12T05:46:02.421Z,99.993896
2019-01-12T05:47:12.023Z,99.993896
2019-01-12T05:48:21.558Z,99.993896
2019-01-12T05:49:31.091Z,99.993896
2019-01-12T05:50:40.613Z,99.993896
2019-01-12T05:51:50.197Z,99.993896
2019-01-12T05:52:59.756Z,99.993896
2019-01-12T05:54:09.287Z,99.993896
2019-01-12T05:55:18.816Z,99.993896
2019-01-12T05:56:28.343Z,99.993896
2019-01-12T05:57:37.858Z,99.993896
2019-01-12T05:58:47.380Z,99.993896
2019-01-12T05:59:56.889Z,99.993896
2019-01-12T06:01:06.473Z,99.993896
2019-01-12T06:02:16.005Z,99.993896
2019-01-12T06:03:25.524Z,99.993896
2019-01-12T06:04:35.064Z,99.993896
2019-01-12T06:05:44.591Z,99.993896
2019-01-12T06:06:54.138Z,99.993896
2019-01-12T06:08:03.648Z,99.993896
2019-01-12T06:09:13.196Z,99.993896
2019-01-12T06:10:22.748Z,99.993896
2019-01-12T06:11:32.288Z,99.993896
2019-01-12T06:12:41.803Z,99.993896
2019-01-12T06:13:51.313Z,99.993896
2019-01-12T06:15:00.842Z,99.993896
2019-01-12T06:16:10.372Z,99.993896
2019-01-12T06:17:19.921Z,99.993896
2019-01-12T06:18:29.452Z,99.993896
2019-01-12T06:19:39.005Z,99.993896
2019-01-12T06:20:48.529Z,99.993896
2019-01-12T06:21:58.201Z,99.993896
2019-01-12T06:23:07.707Z,99.993896
2019-01-12T06:24:17.222Z,99.993896
2019-01-12T06:25:26.757Z,99.993896
2019-01-12T06:26:36.287Z,99.993896
2019-01-12T06:27:45.866Z,99.993896
2019-01-12T06:28:55.425Z,99.993896
2019-01-12T06:30:04.994Z,99.993896
2019-01-12T06:31:14.535Z,99.993896
2019-01-12T06:32:24.104Z,99.993896
2019-01-12T06:33:33.748Z,99.993896
2019-01-12T06:34:42.263Z,99.993896
2019-01-12T06:35:51.804Z,99.993896
2019-01-12T06:37:01.337Z,99.993896
2019-01-12T06:38:10.868Z,99.993896
2019-01-12T06:39:20.394Z,99.993896
2019-01-12T06:40:29.915Z,99.993896
2019-01-12T06:41:39.457Z,99.993896
2019-01-12T06:42:49.009Z,99.993896
2019-01-12T06:43:58.526Z,99.993896
2019-01-12T06:45:08.047Z,99.993896
2019-01-12T06:46:17.568Z,99.993896
2019-01-12T06:47:27.103Z,99.993896
2019-01-12T06:48:36.653Z,99.993896
2019-01-12T06:49:46.157Z,99.993896
2019-01-12T06:50:55.697Z,99.993896
2019-01-12T06:52:05.343Z,99.993896
2019-01-12T06:53:14.880Z,99.993896
2019-01-12T06:54:24.404Z,99.993896
2019-01-12T06:55:33.959Z,99.993896
2019-01-12T06:56:43.552Z,99.993896
2019-01-12T06:57:53.088Z,99.993896
2019-01-12T06:59:02.666Z,99.993896
2019-01-12T07:00:12.191Z,99.993896
2019-01-12T07:01:21.707Z,99.993896
2019-01-12T07:02:32.214Z,99.993896
2019-01-12T07:03:41.743Z,99.993896
2019-01-12T07:04:51.262Z,99.993896
2019-01-12T07:06:00.780Z,99.993896
2019-01-12T07:07:10.310Z,99.993896
2019-01-12T07:08:19.847Z,99.993896
2019-01-12T07:09:29.400Z,99.993896
2019-01-12T07:10:38.930Z,99.993896
2019-01-12T07:11:48.488Z,99.993896
2019-01-12T07:12:58.036Z,99.993896
2019-01-12T07:14:07.569Z,99.993896
2019-01-12T07:15:17.097Z,99.993896
2019-01-12T07:16:26.641Z,99.993896
2019-01-12T07:17:36.187Z,99.993896
2019-01-12T07:18:45.709Z,99.993896
2019-01-12T07:19:55.255Z,99.993896
2019-01-12T07:21:04.790Z,99.951172
2019-01-12T07:22:14.370Z,99.951172
2019-01-12T07:23:23.880Z,99.951172
2019-01-12T07:24:33.430Z,99.847412
2019-01-12T07:25:42.938Z,99.847412
2019-01-12T07:26:52.502Z,99.847412
2019-01-12T07:28:02.013Z,99.847412
2019-01-12T07:29:11.798Z,99.847412
2019-01-12T07:30:21.096Z,99.847412
2019-01-12T07:31:30.651Z,99.847412
2019-01-12T07:32:40.290Z,99.847412
2019-01-12T07:33:49.926Z,99.847412
2019-01-12T07:34:59.554Z,99.847412
2019-01-12T07:36:09.126Z,99.804688
2019-01-12T07:37:18.671Z,99.804688
2019-01-12T07:38:28.207Z,99.993896
2019-01-12T07:39:37.741Z,99.993896
2019-01-12T07:40:47.272Z,99.993896
2019-01-12T07:41:56.822Z,99.993896
2019-01-12T07:43:06.343Z,99.993896
2019-01-12T07:44:15.896Z,99.993896
2019-01-12T07:45:25.420Z,99.993896
2019-01-12T07:46:35.018Z,99.993896
2019-01-12T07:47:44.664Z,99.993896
2019-01-12T07:48:54.288Z,99.993896
2019-01-12T07:50:03.818Z,99.993896
2019-01-12T07:51:13.330Z,99.993896
2019-01-12T07:52:22.898Z,99.993896
2019-01-12T07:53:32.421Z,99.993896
2019-01-12T07:54:41.959Z,99.993896
2019-01-12T07:55:51.545Z,99.993896
2019-01-12T07:57:01.111Z,99.993896
2019-01-12T07:58:10.913Z,99.993896
2019-01-12T07:59:20.439Z,99.993896
2019-01-12T08:00:29.983Z,99.993896
2019-01-12T08:01:39.527Z,99.993896
2019-01-12T08:02:49.069Z,99.993896
2019-01-12T08:03:58.597Z,99.993896
2019-01-12T08:05:08.118Z,99.993896
2019-01-12T08:06:17.622Z,99.993896
2019-01-12T08:07:27.188Z,99.993896
2019-01-12T08:08:36.744Z,99.993896
2019-01-12T08:09:46.260Z,99.993896
2019-01-12T08:10:55.812Z,99.993896
2019-01-12T08:12:05.393Z,99.993896
2019-01-12T08:13:15.927Z,99.993896
2019-01-12T08:14:25.451Z,99.993896
2019-01-12T08:15:34.992Z,99.993896
2019-01-12T08:16:44.534Z,99.993896
2019-01-12T08:17:54.076Z,99.993896
2019-01-12T08:19:04.601Z,99.993896
2019-01-12T08:20:14.152Z,99.993896
2019-01-12T08:21:23.669Z,99.993896
2019-01-12T08:22:33.226Z,99.993896
2019-01-12T08:23:42.739Z,99.993896
2019-01-12T08:24:52.262Z,99.993896
2019-01-12T08:26:01.781Z,99.993896
2019-01-12T08:27:11.352Z,99.993896
2019-01-12T08:28:20.870Z,99.993896
2019-01-12T08:29:30.391Z,99.993896
2019-01-12T08:30:39.936Z,99.993896
2019-01-12T08:31:49.477Z,99.993896
2019-01-12T08:32:59.026Z,99.993896
2019-01-12T08:34:08.543Z,99.993896
2019-01-12T08:35:18.071Z,99.993896
2019-01-12T08:36:27.600Z,99.993896
2019-01-12T08:37:37.138Z,99.993896
2019-01-12T08:38:46.650Z,99.993896
2019-01-12T08:39:56.163Z,99.993896
2019-01-12T08:41:05.710Z,99.993896
2019-01-12T08:42:15.283Z,99.993896
2019-01-12T08:43:24.911Z,99.993896
2019-01-12T08:44:34.510Z,99.993896
2019-01-12T08:45:44.141Z,99.993896
2019-01-12T08:46:54.755Z,99.993896
2019-01-12T08:48:04.366Z,99.993896
2019-01-12T08:49:13.946Z,99.993896
2019-01-12T08:50:23.586Z,99.993896
2019-01-12T08:51:33.151Z,99.993896
2019-01-12T08:52:42.690Z,99.993896
2019-01-12T08:53:52.225Z,99.993896
2019-01-12T08:55:01.750Z,99.993896
2019-01-12T08:56:11.277Z,99.993896
2019-01-12T08:57:20.794Z,99.993896
2019-01-12T08:58:30.346Z,99.993896
2019-01-12T08:59:39.891Z,99.993896
2019-01-12T09:00:49.429Z,99.993896
2019-01-12T09:01:58.987Z,99.993896
2019-01-12T09:03:08.574Z,99.993896
2019-01-12T09:04:18.127Z,99.993896
2019-01-12T09:05:27.638Z,99.993896
2019-01-12T09:06:37.167Z,99.993896
2019-01-12T09:07:46.772Z,99.981689
2019-01-12T09:08:56.237Z,99.993896
2019-01-12T09:10:05.775Z,99.993896
2019-01-12T09:11:15.303Z,99.993896
2019-01-12T09:12:24.832Z,99.993896
2019-01-12T09:13:34.390Z,99.768066
2019-01-12T09:14:44.676Z,99.993896
2019-01-12T09:15:54.659Z,99.993896
2019-01-12T09:17:04.199Z,99.993896
2019-01-12T09:18:13.740Z,99.993896
2019-01-12T09:19:23.370Z,99.993896
2019-01-12T09:20:33.058Z,99.993896
2019-01-12T09:21:42.595Z,99.993896
2019-01-12T09:22:52.146Z,99.993896
2019-01-12T09:24:01.672Z,99.993896
2019-01-12T09:25:11.354Z,99.993896
2019-01-12T09:26:20.891Z,99.993896
2019-01-12T09:27:30.469Z,99.981689
2019-01-12T09:28:40.042Z,99.993896
2019-01-12T09:29:49.619Z,99.993896
2019-01-12T09:30:59.144Z,99.993896
2019-01-12T09:32:08.769Z,99.993896
2019-01-12T09:33:18.312Z,99.993896
2019-01-12T09:34:27.983Z,99.993896
2019-01-12T09:35:37.660Z,99.993896
2019-01-12T09:36:47.236Z,99.993896
2019-01-12T09:37:56.817Z,99.993896
2019-01-12T09:39:06.429Z,99.993896
2019-01-12T09:40:14.949Z,99.993896
2019-01-12T09:41:24.472Z,99.993896
2019-01-12T09:42:34.070Z,99.993896
2019-01-12T09:43:44.640Z,99.993896
2019-01-12T09:44:54.233Z,99.993896
2019-01-12T09:46:03.813Z,99.993896
2019-01-12T09:47:13.106Z,99.993896
2019-01-12T09:48:21.962Z,99.993896
2019-01-12T09:49:31.502Z,99.993896
2019-01-12T09:50:41.085Z,99.993896
2019-01-12T09:51:50.620Z,99.993896
2019-01-12T09:53:00.236Z,99.993896
2019-01-12T09:54:09.797Z,99.993896
2019-01-12T09:55:19.404Z,99.993896
2019-01-12T09:56:28.927Z,99.890137
2019-01-12T09:57:40.777Z,99.932861
2019-01-12T09:58:50.387Z,99.993896
2019-01-12T09:59:59.974Z,99.993896
2019-01-12T10:01:09.575Z,99.890137
2019-01-12T10:02:19.124Z,99.993896
2019-01-12T10:03:28.767Z,99.993896
2019-01-12T10:04:38.338Z,99.993896
2019-01-12T10:05:47.866Z,99.993896
2019-01-12T10:06:58.437Z,99.993896
2019-01-12T10:08:07.967Z,99.993896
2019-01-12T10:09:17.523Z,99.993896
2019-01-12T10:10:27.046Z,99.993896
2019-01-12T10:11:36.580Z,99.890137
2019-01-12T10:12:46.113Z,99.993896
2019-01-12T10:13:55.659Z,99.993896
2019-01-12T10:15:05.163Z,99.890137
2019-01-12T10:16:14.701Z,99.993896
2019-01-12T10:17:24.207Z,99.993896
2019-01-12T10:18:33.752Z,99.993896
2019-01-12T10:19:43.273Z,99.945068
2019-01-12T10:20:52.796Z,99.945068
2019-01-12T10:22:02.309Z,99.945068
2019-01-12T10:23:11.851Z,99.945068
2019-01-12T10:24:21.422Z,99.945068
2019-01-12T10:25:30.945Z,99.945068
2019-01-12T10:26:40.492Z,99.841309
2019-01-12T10:27:50.016Z,99.945068
2019-01-12T10:28:59.597Z,99.841309
2019-01-12T10:30:09.114Z,99.890137
2019-01-12T10:31:18.658Z,99.841309
2019-01-12T10:32:28.179Z,99.890137
2019-01-12T10:33:37.727Z,99.786377
2019-01-12T10:34:47.276Z,99.786377
2019-01-12T10:35:56.816Z,99.786377
2019-01-12T10:37:06.310Z,99.890137
2019-01-12T10:38:16.018Z,99.786377
2019-01-12T10:39:26.556Z,99.890137
2019-01-12T10:40:36.089Z,99.890137
2019-01-12T10:41:45.624Z,99.890137
2019-01-12T10:42:55.146Z,99.993896
2019-01-12T10:44:04.718Z,99.786377
2019-01-12T10:45:14.263Z,99.890137
2019-01-12T10:46:23.771Z,99.786377
2019-01-12T10:47:33.302Z,99.890137
2019-01-12T10:48:42.846Z,99.890137
2019-01-12T10:49:52.376Z,99.993896
2019-01-12T10:51:01.906Z,99.786377
2019-01-12T10:52:11.438Z,99.890137
2019-01-12T10:53:21.992Z,99.786377
2019-01-12T10:54:31.568Z,99.890137
2019-01-12T10:55:41.076Z,99.890137
2019-01-12T10:56:50.646Z,99.993896
2019-01-12T10:58:00.195Z,99.993896
2019-01-12T10:59:09.768Z,99.993896
2019-01-12T11:00:19.345Z,99.993896
2019-01-12T11:01:28.854Z,99.993896
2019-01-12T11:02:38.394Z,99.890137
2019-01-12T11:03:47.998Z,99.890137
2019-01-12T11:04:57.577Z,99.890137
2019-01-12T11:06:07.120Z,99.993896
2019-01-12T11:07:16.694Z,99.993896
2019-01-12T11:08:26.224Z,99.993896
2019-01-12T11:09:35.854Z,99.890137
2019-01-12T11:10:45.369Z,99.993896
2019-01-12T11:11:54.931Z,99.890137
2019-01-12T11:13:04.501Z,99.890137
2019-01-12T11:14:15.060Z,99.890137
2019-01-12T11:15:24.591Z,99.993896
2019-01-12T11:16:34.131Z,99.945068
2019-01-12T11:17:43.646Z,99.841309
2019-01-12T11:18:53.207Z,99.945068
2019-01-12T11:20:02.750Z,99.841309
2019-01-12T11:21:12.267Z,99.737549
2019-01-12T11:22:21.803Z,99.902344
2019-01-12T11:23:31.336Z,99.694824
2019-01-12T11:24:40.937Z,99.694824
2019-01-12T11:25:50.474Z,99.798584
2019-01-12T11:27:00.015Z,99.645996
2019-01-12T11:28:09.530Z,99.334717
2019-01-12T11:29:20.064Z,98.815918
2019-01-12T11:30:29.592Z,97.668457
2019-01-12T11:31:39.120Z,96.520996
2019-01-12T11:32:48.643Z,96.624756
2019-01-12T11:33:58.229Z,96.313477
2019-01-12T11:35:07.766Z,95.996094
2019-01-12T11:36:17.313Z,95.788574
2019-01-12T11:37:26.823Z,95.684814
2019-01-12T11:38:36.336Z,95.477295
2019-01-12T11:39:45.899Z,95.269775
2019-01-12T11:40:55.422Z,95.74585
2019-01-12T11:42:04.985Z,95.53833
2019-01-12T11:43:14.545Z,95.64209
2019-01-12T11:44:24.081Z,95.53833
2019-01-12T11:45:33.596Z,95.330811
2019-01-12T11:46:43.137Z,95.062256
2019-01-12T11:47:52.737Z,95.64209
2019-01-12T11:49:02.282Z,95.64209
2019-01-12T11:50:11.839Z,95.43457
2019-01-12T11:51:21.351Z,95.849609
2019-01-12T11:52:30.885Z,96.014404
2019-01-12T11:53:40.412Z,94.976807
2019-01-12T11:54:49.995Z,94.451904
2019-01-12T11:55:59.523Z,94.390869
2019-01-12T11:57:09.084Z,94.494629
2019-01-12T11:58:19.574Z,94.244385
2019-01-12T11:59:29.127Z,94.348145
2019-01-12T12:00:38.674Z,94.287109
2019-01-12T12:01:48.214Z,95.019531
2019-01-12T12:02:57.747Z,95.288086
2019-01-12T12:04:07.281Z,94.287109
2019-01-12T12:05:17.296Z,94.537354
2019-01-12T12:06:26.401Z,95.269775
2019-01-12T12:07:35.934Z,96.160889
2019-01-12T12:08:45.462Z,95.74585
2019-01-12T12:09:55.066Z,94.287109
2019-01-12T12:11:04.649Z,94.866943
2019-01-12T12:12:14.175Z,94.451904
2019-01-12T12:13:23.741Z,93.829346
2019-01-12T12:14:33.273Z,94.244385
2019-01-12T12:15:42.841Z,94.140625
2019-01-12T12:16:52.384Z,94.555664
2019-01-12T12:18:01.951Z,93.725586
2019-01-12T12:19:11.471Z,93.725586
2019-01-12T12:20:21.022Z,94.20166
2019-01-12T12:21:30.562Z,93.371582
2019-01-12T12:22:40.096Z,93.847656
2019-01-12T12:23:49.635Z,93.536377
2019-01-12T12:24:59.241Z,93.347168
2019-01-12T12:26:08.814Z,92.053223
2019-01-12T12:27:18.361Z,91.949463
2019-01-12T12:28:28.886Z,92.071533
2019-01-12T12:29:38.402Z,91.448975
2019-01-12T12:30:47.963Z,92.901611
2019-01-12T12:31:57.531Z,90.9729
2019-01-12T12:33:07.056Z,92.425537
2019-01-12T12:34:16.599Z,91.137695
2019-01-12T12:35:26.226Z,91.033936
2019-01-12T12:36:35.764Z,90.869141
2019-01-12T12:37:45.298Z,90.869141
2019-01-12T12:38:54.849Z,90.9729
2019-01-12T12:40:04.394Z,90.600586
2019-01-12T12:41:14.041Z,92.364502
2019-01-12T12:42:23.604Z,92.156982
2019-01-12T12:43:33.190Z,91.680908
2019-01-12T12:44:42.803Z,91.680908
2019-01-12T12:45:52.349Z,91.931152
2019-01-12T12:47:01.952Z,92.242432
2019-01-12T12:48:11.502Z,92.242432
2019-01-12T12:49:21.049Z,92.492676
2019-01-12T12:50:30.703Z,92.76123
2019-01-12T12:51:40.241Z,93.389893
2019-01-12T12:52:49.757Z,92.86499
2019-01-12T12:53:59.298Z,92.553711
2019-01-12T12:55:08.839Z,93.182373
2019-01-12T12:56:18.435Z,93.286133
2019-01-12T12:57:32.817Z,92.96875
2019-01-12T12:58:38.497Z,93.182373
2019-01-12T12:59:48.023Z,93.225098
2019-01-12T13:00:57.602Z,93.908691
2019-01-12T13:02:07.166Z,93.115234
2019-01-12T13:03:16.718Z,92.700195
2019-01-12T13:04:26.260Z,93.640137
2019-01-12T13:05:36.805Z,92.950439
2019-01-12T13:06:46.332Z,93.054199
2019-01-12T13:07:55.862Z,93.157959
2019-01-12T13:09:05.406Z,93.579102
2019-01-12T13:10:14.926Z,93.475342
2019-01-12T13:11:24.486Z,92.5354
2019-01-12T13:12:34.007Z,92.950439
2019-01-12T13:13:43.552Z,92.63916
2019-01-12T13:14:53.078Z,93.786621